createdAt,value
2019-05-09T00:01:16.438Z,99.90
2019-05-09T00:04:03.429Z,99.90
2019-05-09T00:06:48.550Z,99.90
2019-05-09T00:09:34.226Z,99.90
2019-05-09T00:12:19.436Z,99.90
2019-05-09T00:15:05.483Z,99.90
2019-05-09T00:17:53.156Z,99.90
2019-05-09T00:20:46.529Z,99.90
2019-05-09T00:23:33.201Z,99.90
2019-05-09T00:26:18.578Z,99.90
2019-05-09T00:29:09.329Z,99.90
2019-05-09T00:32:03.662Z,99.90
2019-05-09T00:35:14.478Z,99.90
2019-05-09T00:38:07.493Z,99.90
2019-05-09T00:40:58.441Z,99.90
2019-05-09T00:43:43.621Z,99.90
2019-05-09T00:46:35.670Z,99.90
2019-05-09T00:49:23.519Z,99.90
2019-05-09T00:52:09.401Z,99.90
2019-05-09T00:54:54.944Z,99.90
2019-05-09T00:57:39.725Z,99.90
2019-05-09T01:00:24.650Z,99.90
2019-05-09T01:03:09.951Z,99.90
2019-05-09T01:05:55.558Z,99.90
2019-05-09T01:08:40.630Z,99.90
2019-05-09T01:11:26.070Z,99.90
2019-05-09T01:14:14.040Z,99.90
2019-05-09T01:16:59.170Z,99.90
2019-05-09T01:19:44.772Z,99.90
2019-05-09T01:22:30.390Z,99.90
2019-05-09T01:25:15.794Z,99.90
2019-05-09T01:28:03.127Z,99.90
2019-05-09T01:30:47.959Z,99.90
2019-05-09T01:33:40.661Z,99.90
2019-05-09T01:36:45.479Z,99.90
2019-05-09T01:39:30.554Z,99.90
2019-05-09T01:42:15.830Z,99.90
2019-05-09T01:45:00.927Z,99.90
2019-05-09T01:47:45.945Z,99.90
2019-05-09T01:50:31.026Z,99.90
2019-05-09T01:53:20.374Z,99.90
2019-05-09T01:56:05.325Z,99.90
2019-05-09T01:58:50.650Z,99.90
2019-05-09T02:01:36.090Z,99.90
2019-05-09T02:04:21.230Z,99.90
2019-05-09T02:07:06.330Z,99.90
2019-05-09T02:09:54.011Z,99.90
2019-05-09T02:12:39.150Z,99.90
2019-05-09T02:15:37.111Z,99.90
2019-05-09T02:18:28.186Z,99.90
2019-05-09T02:21:14.542Z,99.90
2019-05-09T02:23:59.814Z,99.90
2019-05-09T02:26:45.028Z,99.90
2019-05-09T02:29:30.125Z,99.90
2019-05-09T02:32:15.260Z,99.90
2019-05-09T02:35:04.640Z,99.90
2019-05-09T02:37:49.821Z,99.90
2019-05-09T02:40:34.393Z,99.90
2019-05-09T02:43:19.610Z,99.90
2019-05-09T02:46:11.806Z,99.90
2019-05-09T02:48:59.490Z,99.90
2019-05-09T02:51:44.447Z,99.90
2019-05-09T02:54:30.170Z,99.90
2019-05-09T02:57:18.230Z,99.90
2019-05-09T03:00:29.019Z,99.90
2019-05-09T03:03:20.004Z,99.90
2019-05-09T03:06:05.031Z,99.90
2019-05-09T03:08:49.963Z,99.90
2019-05-09T03:11:35.397Z,99.90
2019-05-09T03:14:21.571Z,99.90
2019-05-09T03:17:08.769Z,99.90
2019-05-09T03:19:54.145Z,99.90
2019-05-09T03:22:39.674Z,99.90
2019-05-09T03:25:25.410Z,99.90
2019-05-09T03:28:22.550Z,99.90
2019-05-09T03:31:09.606Z,99.90
2019-05-09T03:33:55.007Z,99.90
2019-05-09T03:36:40.098Z,99.90
2019-05-09T03:39:25.027Z,99.90
2019-05-09T03:42:10.532Z,99.90
2019-05-09T03:44:57.891Z,99.90
2019-05-09T03:47:55.134Z,99.90
2019-05-09T03:50:40.666Z,99.90
2019-05-09T03:53:27.602Z,99.90
2019-05-09T03:56:15.302Z,99.90
2019-05-09T03:59:00.630Z,99.90
2019-05-09T04:01:47.766Z,99.90
2019-05-09T04:04:33.354Z,99.90
2019-05-09T04:07:18.835Z,99.90
2019-05-09T04:10:04.022Z,99.90
2019-05-09T04:12:56.227Z,99.90
2019-05-09T04:15:37.970Z,99.90
2019-05-09T04:18:24.098Z,99.90
2019-05-09T04:21:09.586Z,99.90
2019-05-09T04:23:55.275Z,99.90
2019-05-09T04:26:48.295Z,99.90
2019-05-09T04:29:32.818Z,99.90
2019-05-09T04:32:18.288Z,99.90
2019-05-09T04:35:03.483Z,99.90
2019-05-09T04:37:48.770Z,99.90
2019-05-09T04:40:37.794Z,99.90
2019-05-09T04:43:32.243Z,99.90
2019-05-09T04:46:13.081Z,99.90
2019-05-09T04:48:59.511Z,99.90
2019-05-09T04:51:43.659Z,99.90
2019-05-09T04:54:29.046Z,99.90
2019-05-09T04:57:14.372Z,99.90
2019-05-09T04:59:59.489Z,99.90
2019-05-09T05:02:48.472Z,99.90
2019-05-09T05:05:34.202Z,99.90
2019-05-09T05:08:19.394Z,99.90
2019-05-09T05:11:04.805Z,99.90
2019-05-09T05:13:50.437Z,99.90
2019-05-09T05:16:39.210Z,99.90
2019-05-09T05:19:24.477Z,99.90
2019-05-09T05:22:17.963Z,99.90
2019-05-09T05:25:03.622Z,99.90
2019-05-09T05:27:48.834Z,99.90
2019-05-09T05:30:33.853Z,99.90
2019-05-09T05:33:30.448Z,99.90
2019-05-09T05:36:18.014Z,99.90
2019-05-09T05:39:07.317Z,99.90
2019-05-09T05:41:51.866Z,99.90
2019-05-09T05:44:38.591Z,99.90
2019-05-09T05:47:30.498Z,99.90
2019-05-09T05:50:17.634Z,99.90
2019-05-09T05:53:03.111Z,99.90
2019-05-09T05:55:52.039Z,99.90
2019-05-09T05:58:35.510Z,99.90
2019-05-09T06:01:20.798Z,99.90
2019-05-09T06:04:07.600Z,99.90
2019-05-09T06:06:53.753Z,99.90
2019-05-09T06:09:39.330Z,99.90
2019-05-09T06:12:24.698Z,99.90
2019-05-09T06:15:10.273Z,99.90
2019-05-09T06:17:57.658Z,99.90
2019-05-09T06:20:45.479Z,99.90
2019-05-09T06:23:30.070Z,99.90
2019-05-09T06:26:15.429Z,99.90
2019-05-09T06:29:00.926Z,99.90
2019-05-09T06:31:48.175Z,99.90
2019-05-09T06:34:33.502Z,99.90
2019-05-09T06:37:18.810Z,99.90
2019-05-09T06:40:03.628Z,99.90
2019-05-09T06:42:49.142Z,99.90
2019-05-09T06:45:43.622Z,99.90
2019-05-09T06:48:28.850Z,99.90
2019-05-09T06:51:14.119Z,99.90
2019-05-09T06:53:59.902Z,99.90
2019-05-09T06:56:47.425Z,99.90
2019-05-09T06:59:32.665Z,99.90
2019-05-09T07:02:28.270Z,99.90
2019-05-09T07:05:22.378Z,99.90
2019-05-09T07:08:31.447Z,99.90
2019-05-09T07:11:19.247Z,99.90
2019-05-09T07:14:04.649Z,99.90
2019-05-09T07:16:49.738Z,99.90
2019-05-09T07:19:35.111Z,99.90
2019-05-09T07:22:28.218Z,99.90
2019-05-09T07:25:22.027Z,99.90
2019-05-09T07:28:07.802Z,99.90
2019-05-09T07:31:11.553Z,99.90
2019-05-09T07:34:24.614Z,99.90
2019-05-09T07:37:09.742Z,99.90
2019-05-09T07:39:54.582Z,99.90
2019-05-09T07:42:40.711Z,99.90
2019-05-09T07:45:28.110Z,99.90
2019-05-09T07:48:13.827Z,99.90
2019-05-09T07:50:59.804Z,99.90
2019-05-09T07:53:45.405Z,99.90
2019-05-09T07:56:30.686Z,99.90
2019-05-09T07:59:17.961Z,99.90
2019-05-09T08:02:02.790Z,99.90
2019-05-09T08:04:48.981Z,99.90
2019-05-09T08:07:34.314Z,99.90
2019-05-09T08:10:19.846Z,99.90
2019-05-09T08:13:08.273Z,99.60
2019-05-09T08:15:52.102Z,98.50
2019-05-09T08:18:37.755Z,99.20
2019-05-09T08:21:22.433Z,98.30
2019-05-09T08:24:08.249Z,98.30
2019-05-09T08:26:54.322Z,97.90
2019-05-09T08:29:39.490Z,97.80
2019-05-09T08:32:24.970Z,96.90
2019-05-09T08:35:10.338Z,96.90
2019-05-09T08:37:55.438Z,98.20
2019-05-09T08:40:41.177Z,97.00
2019-05-09T08:43:28.316Z,97.30
2019-05-09T08:46:14.599Z,96.40
2019-05-09T08:49:00.158Z,95.30
2019-05-09T08:52:08.964Z,96.20
2019-05-09T08:54:43.511Z,94.90
2019-05-09T08:57:28.991Z,93.30
2019-05-09T09:00:14.519Z,94.30
2019-05-09T09:02:59.604Z,96.50
2019-05-09T09:05:45.075Z,98.40
2019-05-09T09:08:30.352Z,98.90
2019-05-09T09:11:15.779Z,97.50
2019-05-09T09:14:00.586Z,97.60
2019-05-09T09:16:47.966Z,96.20
2019-05-09T09:19:33.873Z,96.20
2019-05-09T09:22:19.122Z,93.90
2019-05-09T09:25:04.094Z,93.70
2019-05-09T09:27:51.089Z,94.60
2019-05-09T09:30:38.627Z,92.80
2019-05-09T09:33:23.140Z,91.60
2019-05-09T09:36:08.870Z,90.30
2019-05-09T09:38:54.650Z,90.10
2019-05-09T09:41:40.026Z,90.60
2019-05-09T09:44:25.188Z,86.30
2019-05-09T09:47:10.426Z,90.10
2019-05-09T09:49:59.580Z,90.40
2019-05-09T09:52:43.754Z,91.00
2019-05-09T09:55:29.538Z,90.70
2019-05-09T09:58:14.910Z,90.80
2019-05-09T10:01:18.133Z,87.40
2019-05-09T10:04:19.385Z,86.80
2019-05-09T10:06:58.322Z,82.30
2019-05-09T10:09:43.617Z,83.20
2019-05-09T10:12:29.288Z,85.20
2019-05-09T10:15:24.569Z,85.00
2019-05-09T10:18:27.559Z,85.80
2019-05-09T10:21:18.863Z,85.50
2019-05-09T10:24:03.934Z,88.30
2019-05-09T10:27:08.806Z,87.60
2019-05-09T10:29:54.481Z,86.80
2019-05-09T10:32:39.402Z,84.70
2019-05-09T10:35:24.695Z,84.70
2019-05-09T10:38:10.033Z,78.90
2019-05-09T10:40:55.330Z,79.20
2019-05-09T10:43:58.766Z,81.10
2019-05-09T10:46:56.733Z,84.70
2019-05-09T10:49:37.577Z,85.10
2019-05-09T10:52:22.830Z,86.30
2019-05-09T10:55:09.263Z,83.40
2019-05-09T10:57:54.659Z,84.00
2019-05-09T11:00:39.990Z,84.00
2019-05-09T11:03:25.169Z,81.00
2019-05-09T11:06:10.306Z,81.20
2019-05-09T11:08:58.366Z,80.00
2019-05-09T11:11:43.584Z,75.50
2019-05-09T11:14:36.544Z,80.10
2019-05-09T11:17:21.431Z,82.80
2019-05-09T11:20:04.063Z,86.90
2019-05-09T11:22:48.958Z,84.60
2019-05-09T11:25:33.862Z,82.50
2019-05-09T11:28:18.945Z,82.20
2019-05-09T11:31:04.245Z,84.20
2019-05-09T11:33:49.158Z,82.80
2019-05-09T11:36:34.243Z,82.20
2019-05-09T11:39:35.113Z,79.30
2019-05-09T11:42:06.461Z,81.80
2019-05-09T11:44:51.373Z,81.50
2019-05-09T11:47:45.468Z,77.20
2019-05-09T11:50:23.820Z,74.70
2019-05-09T11:53:09.043Z,77.10
2019-05-09T11:55:57.595Z,69.60
2019-05-09T11:58:42.330Z,75.90
2019-05-09T12:01:29.323Z,70.50
2019-05-09T12:04:14.186Z,71.10
2019-05-09T12:06:59.739Z,70.80
2019-05-09T12:09:45.023Z,73.40
2019-05-09T12:12:30.582Z,74.60
2019-05-09T12:15:15.663Z,72.40
2019-05-09T12:18:07.573Z,75.20
2019-05-09T12:20:48.421Z,75.80
2019-05-09T12:23:33.454Z,74.70
2019-05-09T12:26:18.711Z,69.90
2019-05-09T12:29:03.974Z,70.50
2019-05-09T12:31:49.963Z,73.40
2019-05-09T12:34:34.990Z,73.50
2019-05-09T12:37:20.603Z,77.70
2019-05-09T12:40:08.261Z,79.10
2019-05-09T12:42:54.004Z,79.80
2019-05-09T12:45:39.141Z,79.60
2019-05-09T12:48:27.670Z,78.40
2019-05-09T12:51:12.298Z,84.30
2019-05-09T12:53:58.183Z,82.60
2019-05-09T12:56:43.855Z,82.00
2019-05-09T12:59:28.913Z,79.90
2019-05-09T13:02:14.173Z,79.10
2019-05-09T13:04:59.326Z,81.40
2019-05-09T13:07:44.583Z,82.50
2019-05-09T13:10:29.762Z,77.00
2019-05-09T13:13:14.994Z,75.30
2019-05-09T13:16:14.125Z,75.40
2019-05-09T13:19:03.584Z,77.70
2019-05-09T13:21:48.526Z,77.10
2019-05-09T13:24:34.018Z,78.20
2019-05-09T13:27:19.210Z,74.40
2019-05-09T13:30:08.182Z,74.20
2019-05-09T13:32:53.175Z,75.30
2019-05-09T13:35:39.226Z,76.10
2019-05-09T13:38:27.644Z,76.90
2019-05-09T13:41:13.203Z,77.50
2019-05-09T13:44:04.951Z,76.10
2019-05-09T13:46:45.757Z,74.80
2019-05-09T13:49:31.062Z,75.90
2019-05-09T13:52:17.970Z,76.70
2019-05-09T13:55:02.914Z,75.30
2019-05-09T13:57:48.888Z,76.00
2019-05-09T14:00:34.062Z,79.70
2019-05-09T14:03:19.347Z,75.30
2019-05-09T14:06:04.593Z,75.80
2019-05-09T14:08:49.725Z,73.00
2019-05-09T14:11:34.738Z,72.80
2019-05-09T14:14:19.899Z,73.10
2019-05-09T14:17:05.049Z,70.70
2019-05-09T14:19:51.239Z,71.50
2019-05-09T14:22:38.589Z,70.70
2019-05-09T14:25:23.544Z,72.20
2019-05-09T14:28:08.783Z,76.00
2019-05-09T14:30:54.390Z,76.90
2019-05-09T14:33:39.418Z,75.50
2019-05-09T14:36:27.648Z,78.70
2019-05-09T14:39:12.214Z,82.40
2019-05-09T14:41:58.008Z,79.90
2019-05-09T14:44:43.454Z,82.50
2019-05-09T14:47:29.178Z,83.30
2019-05-09T14:50:14.445Z,86.60
2019-05-09T14:52:59.717Z,91.30
2019-05-09T14:55:47.414Z,92.20
2019-05-09T14:58:32.706Z,92.90
2019-05-09T15:01:19.414Z,92.10
2019-05-09T15:04:05.398Z,91.70
2019-05-09T15:06:51.080Z,91.90
2019-05-09T15:09:36.307Z,92.60
2019-05-09T15:12:21.714Z,91.50
2019-05-09T15:15:07.648Z,88.30
2019-05-09T15:17:53.377Z,86.40
2019-05-09T15:20:38.858Z,86.50
2019-05-09T15:23:24.026Z,87.90
2019-05-09T15:26:09.046Z,87.60
2019-05-09T15:28:54.762Z,87.30
2019-05-09T15:31:39.927Z,88.40
2019-05-09T15:34:28.362Z,86.80
2019-05-09T15:37:12.766Z,88.60
2019-05-09T15:39:58.413Z,87.50
2019-05-09T15:42:44.074Z,89.80
2019-05-09T15:45:32.902Z,90.00
2019-05-09T15:48:18.338Z,90.80
2019-05-09T15:51:03.581Z,90.20
2019-05-09T15:53:49.015Z,89.60
2019-05-09T15:56:34.431Z,90.50
2019-05-09T15:59:19.986Z,90.80
2019-05-09T16:02:09.146Z,90.20
2019-05-09T16:04:54.309Z,90.10
2019-05-09T16:07:39.991Z,91.30
2019-05-09T16:10:25.362Z,89.30
2019-05-09T16:13:10.474Z,89.70
2019-05-09T16:15:57.458Z,90.30
2019-05-09T16:18:42.951Z,90.60
2019-05-09T16:21:28.298Z,90.40
2019-05-09T16:24:13.755Z,91.10
2019-05-09T16:26:59.634Z,91.10
2019-05-09T16:29:44.817Z,90.90
2019-05-09T16:32:29.866Z,90.10
2019-05-09T16:35:18.019Z,90.20
2019-05-09T16:38:06.759Z,91.00
2019-05-09T16:40:49.227Z,91.30
2019-05-09T16:43:35.038Z,91.10
2019-05-09T16:46:20.162Z,91.20
2019-05-09T16:49:05.312Z,91.80
2019-05-09T16:51:51.114Z,92.50
2019-05-09T16:54:38.943Z,92.90
2019-05-09T16:57:23.990Z,93.30
2019-05-09T17:00:10.835Z,93.60
2019-05-09T17:02:57.468Z,93.80
2019-05-09T17:05:42.671Z,94.30
2019-05-09T17:08:28.407Z,94.80
2019-05-09T17:11:13.974Z,95.20
2019-05-09T17:13:58.839Z,95.70
2019-05-09T17:16:43.890Z,95.80
2019-05-09T17:19:29.034Z,96.00
2019-05-09T17:22:18.521Z,96.40
2019-05-09T17:25:03.689Z,96.70
2019-05-09T17:27:48.909Z,97.40
2019-05-09T17:30:34.179Z,97.40
2019-05-09T17:33:19.153Z,97.60
2019-05-09T17:36:04.811Z,97.10
2019-05-09T17:38:50.058Z,97.50
2019-05-09T17:41:35.102Z,97.70
2019-05-09T17:44:20.386Z,97.90
2019-05-09T17:47:08.148Z,98.40
2019-05-09T17:49:53.585Z,98.50
2019-05-09T17:52:38.837Z,98.40
2019-05-09T17:55:24.082Z,98.60
2019-05-09T17:58:09.294Z,98.90
2019-05-09T18:00:57.439Z,99.10
2019-05-09T18:03:41.861Z,99.50
2019-05-09T18:06:28.158Z,99.90
2019-05-09T18:09:14.011Z,99.90
2019-05-09T18:11:59.609Z,99.90
2019-05-09T18:14:44.852Z,99.90
2019-05-09T18:17:30.014Z,99.90
2019-05-09T18:20:17.650Z,99.90
2019-05-09T18:23:03.401Z,99.90
2019-05-09T18:25:49.530Z,99.90
2019-05-09T18:28:35.321Z,99.90
2019-05-09T18:31:22.939Z,99.90
2019-05-09T18:34:08.178Z,99.90
2019-05-09T18:36:53.238Z,99.90
2019-05-09T18:39:38.488Z,99.90
2019-05-09T18:42:24.530Z,99.90
2019-05-09T18:45:10.257Z,99.90
2019-05-09T18:47:57.823Z,99.90
2019-05-09T18:50:43.046Z,99.90
2019-05-09T18:53:28.878Z,99.90
2019-05-09T18:56:14.355Z,99.90
2019-05-09T18:59:00.139Z,99.90
2019-05-09T19:01:45.814Z,99.90
2019-05-09T19:04:31.036Z,99.90
2019-05-09T19:07:22.604Z,99.90
2019-05-09T19:10:03.390Z,99.90
2019-05-09T19:12:48.792Z,99.90
2019-05-09T19:15:43.590Z,99.90
2019-05-09T19:18:44.818Z,99.90
2019-05-09T19:21:37.130Z,99.90
2019-05-09T19:24:22.455Z,99.90
2019-05-09T19:27:07.773Z,99.90
2019-05-09T19:29:53.197Z,99.90
2019-05-09T19:32:38.323Z,99.90
2019-05-09T19:35:24.445Z,99.90
2019-05-09T19:38:09.791Z,99.90
2019-05-09T19:40:55.262Z,99.90
2019-05-09T19:43:40.541Z,99.90
2019-05-09T19:46:25.485Z,99.90
2019-05-09T19:49:10.234Z,99.90
2019-05-09T19:51:55.354Z,99.90
2019-05-09T19:54:40.816Z,99.90
2019-05-09T19:57:26.397Z,99.90
2019-05-09T20:00:12.074Z,99.90
2019-05-09T20:02:57.563Z,99.90
2019-05-09T20:05:43.242Z,99.90
2019-05-09T20:08:29.026Z,99.90
2019-05-09T20:11:33.273Z,99.90
2019-05-09T20:14:30.975Z,99.90
2019-05-09T20:17:16.419Z,99.90
2019-05-09T20:20:01.603Z,99.90
2019-05-09T20:22:53.047Z,99.90
2019-05-09T20:25:34.699Z,99.90
2019-05-09T20:28:20.375Z,99.90
2019-05-09T20:31:05.629Z,99.90
2019-05-09T20:33:50.509Z,99.90
2019-05-09T20:36:35.739Z,99.90
2019-05-09T20:39:21.381Z,99.90
2019-05-09T20:42:06.827Z,99.90
2019-05-09T20:44:51.875Z,99.90
2019-05-09T20:47:37.058Z,99.90
2019-05-09T20:50:22.317Z,99.90
2019-05-09T20:53:09.901Z,99.90
2019-05-09T20:55:54.797Z,99.90
2019-05-09T20:58:40.697Z,99.90
2019-05-09T21:01:25.866Z,99.90
2019-05-09T21:04:11.446Z,99.90
2019-05-09T21:06:56.301Z,99.90
2019-05-09T21:09:41.870Z,99.90
2019-05-09T21:12:27.338Z,99.90
2019-05-09T21:15:12.605Z,99.90
2019-05-09T21:17:57.598Z,99.90
2019-05-09T21:20:42.906Z,99.90
2019-05-09T21:23:28.387Z,99.90
2019-05-09T21:26:13.870Z,99.90
2019-05-09T21:28:59.330Z,99.90
2019-05-09T21:31:44.399Z,99.90
2019-05-09T21:34:29.874Z,99.90
2019-05-09T21:37:14.805Z,99.90
2019-05-09T21:40:00.234Z,99.90
2019-05-09T21:42:45.241Z,99.90
2019-05-09T21:45:30.570Z,99.90
2019-05-09T21:48:15.559Z,99.90
2019-05-09T21:51:00.786Z,99.90
2019-05-09T21:53:46.577Z,99.90
2019-05-09T21:56:31.650Z,99.90
2019-05-09T21:59:16.717Z,99.90
2019-05-09T22:02:02.590Z,99.90
2019-05-09T22:04:47.378Z,99.90
2019-05-09T22:07:32.601Z,99.90
2019-05-09T22:10:17.653Z,99.90
2019-05-09T22:13:02.383Z,99.90
2019-05-09T22:15:48.225Z,99.90
2019-05-09T22:18:33.608Z,99.90
2019-05-09T22:21:21.460Z,99.90
2019-05-09T22:24:06.895Z,99.90
2019-05-09T22:26:52.670Z,99.90
2019-05-09T22:29:38.354Z,99.90
2019-05-09T22:32:23.726Z,99.90
2019-05-09T22:35:08.854Z,99.90
2019-05-09T22:37:53.846Z,99.90
2019-05-09T22:40:38.657Z,99.90
2019-05-09T22:43:24.255Z,99.90
2019-05-09T22:46:09.879Z,99.90
2019-05-09T22:48:55.070Z,99.90
2019-05-09T22:51:40.314Z,99.90
2019-05-09T22:54:25.674Z,99.90
2019-05-09T22:57:11.054Z,99.90
2019-05-09T22:59:56.325Z,99.90
2019-05-09T23:02:42.601Z,99.90
2019-05-09T23:05:28.079Z,99.90
2019-05-09T23:08:13.451Z,99.90
2019-05-09T23:10:58.858Z,99.90
2019-05-09T23:13:53.819Z,99.90
2019-05-09T23:16:39.554Z,99.90
2019-05-09T23:19:25.249Z,99.90
2019-05-09T23:22:10.955Z,99.90
2019-05-09T23:24:56.423Z,99.90
2019-05-09T23:27:42.302Z,99.90
2019-05-09T23:30:27.366Z,99.90
2019-05-09T23:33:12.925Z,99.90
2019-05-09T23:35:57.902Z,99.90
2019-05-09T23:39:01.202Z,99.90
2019-05-09T23:41:46.761Z,99.90
2019-05-09T23:44:31.926Z,99.90
2019-05-09T23:47:16.998Z,99.90
2019-05-09T23:50:02.059Z,99.90
2019-05-09T23:52:46.786Z,99.90
2019-05-09T23:55:50.638Z,99.90
2019-05-09T23:58:54.214Z,99.90
